Terminal Aerodrome Forecast
Issued by NWS

Home | Current Version | Previous Version | Text Only | Print | Product List | Glossary On
Versions: 1 2 3 4 5 6 7 8 9 10 11 12 13 14 15 16 17 18
000
FTUS45 KTFX 192344
TAFHVR
TAF
KHVR 192344Z 2000/2024 26007KT P6SM SCT070 BKN120
     FM201200 23008KT P6SM SKC
     FM202000 23015KT P6SM SCT060 BKN100=

USA.gov is the U.S. government's official web portal to all federal, state and local government web resources and services.